RKSS/GMP METAR and TAF weather

Enter ICAO airport designator
Station Type Date Time Source
RKSS METAR 2021/09/16 09:00 UTC NOAA

RKSS 160900Z 05005KT 020V080 CAVOK 25/15 Q1011 NOSIG


Station Type Date Time Source
RKSS Decoded METAR 2021/09/16 09:00 UTC NOAA

Seoul / Kimp'O International Airport, Korea, South (RKSS) 37-33N 126-48E 18M
Sep 16, 2021 - 05:00 AM EDT / 2021.09.16 0900 UTC
Wind: from the NE (050 degrees) at 6 MPH (5 KT) (direction variable):0
Visibility: greater than 7 mile(s):0
Temperature: 77 F (25 C)
Dew Point: 59 F (15 C)
Relative Humidity: 53%
Pressure (altimeter): 29.85 in. Hg (1011 hPa)
ob: RKSS 160900Z 05005KT 020V080 CAVOK 25/15 Q1011 NOSIG
cycle: 9

Station Type Date Time Source
RKSS TAF 2021/09/16 06:07 UTC NOAA

TAF RKSS 160500Z 1606/1712 08007KT 9999 SCT030 BKN200 TN17/1620Z TX28/1705Z
BECMG 1609/1611 36006KT
BECMG 1701/1702 06010G20KT
BECMG 1711/1712 36006KT CAVOK

Example: see airport list